createdAt,value
2019-02-02T00:02:02.104Z,32.67
2019-02-02T00:04:31.149Z,37.20
2019-02-02T00:07:00.289Z,34.70
2019-02-02T00:09:29.748Z,33.57
2019-02-02T00:11:58.988Z,36.50
2019-02-02T00:14:28.333Z,34.20
2019-02-02T00:16:58.013Z,32.13
2019-02-02T00:19:27.549Z,33.77
2019-02-02T00:21:56.780Z,33.83
2019-02-02T00:24:25.847Z,35.97
2019-02-02T00:26:55.152Z,36.33
2019-02-02T00:29:27.579Z,34.13
2019-02-02T00:31:56.694Z,35.17
2019-02-02T00:34:25.900Z,33.53
2019-02-02T00:36:55.071Z,35.67
2019-02-02T00:39:24.363Z,36.37
2019-02-02T00:41:53.270Z,36.03
2019-02-02T00:44:22.472Z,36.50
2019-02-02T00:46:51.655Z,37.13
2019-02-02T00:49:20.861Z,35.57
2019-02-02T00:51:50.223Z,37.60
2019-02-02T00:54:19.400Z,38.60
2019-02-02T00:56:48.727Z,37.30
2019-02-02T00:59:17.978Z,38.30
2019-02-02T01:01:47.732Z,38.50
2019-02-02T01:04:17.170Z,39.77
2019-02-02T01:06:46.507Z,39.20
2019-02-02T01:09:31.215Z,41.27
2019-02-02T01:12:03.307Z,39.13
2019-02-02T01:14:41.662Z,43.20
2019-02-02T01:17:14.725Z,44.33
2019-02-02T01:19:43.613Z,43.00
2019-02-02T01:22:12.788Z,43.50
2019-02-02T01:24:44.835Z,42.97
2019-02-02T01:27:30.809Z,42.43
2019-02-02T01:30:04.250Z,45.10
2019-02-02T01:32:36.641Z,44.67
2019-02-02T01:35:10.181Z,46.33
2019-02-02T01:37:52.489Z,47.33
2019-02-02T01:40:21.527Z,49.40
2019-02-02T01:42:51.242Z,49.33
2019-02-02T01:45:22.941Z,48.90
2019-02-02T01:47:52.609Z,47.23
2019-02-02T01:50:23.475Z,51.30
2019-02-02T01:52:55.660Z,48.77
2019-02-02T01:55:25.016Z,50.63
2019-02-02T01:57:54.475Z,52.83
2019-02-02T02:00:32.211Z,52.27
2019-02-02T02:03:01.998Z,52.37
2019-02-02T02:05:31.783Z,52.70
2019-02-02T02:08:01.139Z,56.10
2019-02-02T02:10:30.343Z,56.20
2019-02-02T02:12:59.540Z,54.00
2019-02-02T02:15:28.815Z,58.17
2019-02-02T02:17:58.353Z,56.97
2019-02-02T02:20:27.585Z,58.53
2019-02-02T02:22:56.777Z,59.67
2019-02-02T02:25:25.832Z,57.17
2019-02-02T02:27:55.143Z,56.03
2019-02-02T02:30:24.320Z,58.47
2019-02-02T02:32:53.765Z,59.70
2019-02-02T02:35:22.893Z,59.60
2019-02-02T02:37:52.372Z,62.00
2019-02-02T02:40:22.659Z,58.17
2019-02-02T02:42:52.314Z,58.37
2019-02-02T02:45:21.907Z,59.40
2019-02-02T02:47:51.158Z,61.10
2019-02-02T02:50:24.052Z,61.27
2019-02-02T02:52:53.090Z,62.30
2019-02-02T02:55:22.204Z,61.40
2019-02-02T02:57:51.458Z,63.53
2019-02-02T03:00:22.500Z,63.97
2019-02-02T03:02:51.678Z,61.77
2019-02-02T03:05:20.673Z,63.07
2019-02-02T03:07:50.885Z,62.57
2019-02-02T03:10:21.399Z,61.03
2019-02-02T03:12:50.779Z,64.30
2019-02-02T03:15:20.338Z,59.73
2019-02-02T03:17:49.921Z,63.93
2019-02-02T03:20:19.115Z,60.63
2019-02-02T03:22:48.517Z,63.53
2019-02-02T03:25:19.801Z,61.27
2019-02-02T03:27:49.004Z,58.80
2019-02-02T03:30:21.484Z,58.30
2019-02-02T03:32:52.915Z,59.70
2019-02-02T03:35:23.311Z,58.57
2019-02-02T03:37:55.079Z,61.40
2019-02-02T03:40:24.979Z,65.67
2019-02-02T03:42:54.501Z,60.23
2019-02-02T03:45:27.554Z,61.03
2019-02-02T03:47:56.888Z,61.93
2019-02-02T03:50:26.190Z,64.90
2019-02-02T03:52:55.327Z,59.60
2019-02-02T03:55:25.036Z,63.10
2019-02-02T03:57:54.309Z,62.17
2019-02-02T04:00:23.815Z,62.77
2019-02-02T04:02:53.209Z,61.30
2019-02-02T04:05:24.358Z,60.67
2019-02-02T04:07:53.900Z,61.03
2019-02-02T04:10:24.834Z,61.33
2019-02-02T04:12:54.336Z,61.73
2019-02-02T04:15:23.516Z,62.80
2019-02-02T04:17:53.398Z,60.27
2019-02-02T04:20:22.969Z,60.70
2019-02-02T04:22:52.155Z,59.20
2019-02-02T04:25:22.855Z,60.80
2019-02-02T04:27:52.121Z,61.27
2019-02-02T04:30:23.638Z,60.37
2019-02-02T04:32:52.778Z,61.30
2019-02-02T04:35:22.160Z,62.87
2019-02-02T04:37:51.712Z,63.73
2019-02-02T04:40:21.312Z,62.23
2019-02-02T04:42:50.424Z,68.23
2019-02-02T04:45:20.132Z,63.67
2019-02-02T04:47:49.535Z,60.73
2019-02-02T04:50:20.759Z,63.07
2019-02-02T04:52:54.142Z,64.83
2019-02-02T04:55:23.362Z,59.87
2019-02-02T04:57:56.739Z,61.97
2019-02-02T05:00:26.473Z,62.70
2019-02-02T05:02:55.667Z,62.50
2019-02-02T05:05:24.790Z,60.90
2019-02-02T05:07:54.560Z,64.57
2019-02-02T05:10:23.821Z,64.60
2019-02-02T05:12:55.960Z,60.40
2019-02-02T05:15:25.161Z,57.30
2019-02-02T05:17:54.480Z,59.87
2019-02-02T05:20:28.700Z,60.47
2019-02-02T05:22:57.718Z,60.30
2019-02-02T05:25:26.905Z,59.17
2019-02-02T05:27:56.319Z,60.33
2019-02-02T05:30:34.546Z,63.87
2019-02-02T05:33:03.831Z,62.40
2019-02-02T05:35:33.433Z,62.30
2019-02-02T05:38:04.453Z,58.03
2019-02-02T05:40:33.594Z,63.13
2019-02-02T05:43:02.798Z,57.53
2019-02-02T05:45:31.965Z,58.97
2019-02-02T05:48:01.559Z,60.17
2019-02-02T05:50:30.869Z,57.60
2019-02-02T05:53:00.021Z,59.03
2019-02-02T05:55:29.373Z,59.83
2019-02-02T05:58:01.795Z,61.20
2019-02-02T06:00:43.849Z,62.00
2019-02-02T06:03:13.293Z,61.50
2019-02-02T06:05:42.386Z,61.57
2019-02-02T06:08:11.843Z,57.17
2019-02-02T06:10:41.451Z,55.40
2019-02-02T06:13:10.835Z,60.00
2019-02-02T06:15:40.051Z,58.07
2019-02-02T06:18:09.691Z,60.10
2019-02-02T06:20:39.199Z,58.67
2019-02-02T06:23:08.899Z,59.47
2019-02-02T06:25:38.046Z,59.27
2019-02-02T06:28:07.405Z,60.07
2019-02-02T06:30:36.573Z,60.37
2019-02-02T06:33:05.693Z,61.23
2019-02-02T06:35:34.787Z,58.43
2019-02-02T06:38:04.189Z,58.63
2019-02-02T06:40:33.483Z,58.90
2019-02-02T06:43:02.709Z,57.00
2019-02-02T06:45:34.142Z,59.87
2019-02-02T06:48:03.692Z,59.33
2019-02-02T06:50:37.825Z,56.43
2019-02-02T06:53:14.089Z,58.97
2019-02-02T06:55:43.101Z,58.60
2019-02-02T06:58:16.581Z,57.03
2019-02-02T07:00:45.893Z,60.70
2019-02-02T07:03:15.089Z,56.80
2019-02-02T07:05:47.835Z,59.03
2019-02-02T07:08:19.817Z,58.10
2019-02-02T07:10:49.409Z,58.27
2019-02-02T07:13:18.799Z,56.13
2019-02-02T07:15:54.457Z,59.63
2019-02-02T07:18:23.761Z,59.30
2019-02-02T07:20:53.420Z,59.17
2019-02-02T07:23:22.774Z,57.73
2019-02-02T07:26:17.381Z,57.40
2019-02-02T07:28:46.999Z,57.90
2019-02-02T07:31:16.079Z,56.47
2019-02-02T07:33:45.313Z,57.67
2019-02-02T07:36:14.393Z,60.73
2019-02-02T07:38:43.663Z,59.97
2019-02-02T07:41:12.919Z,59.30
2019-02-02T07:43:43.124Z,58.03
2019-02-02T07:46:14.998Z,57.40
2019-02-02T07:48:43.328Z,58.17
2019-02-02T07:51:12.424Z,59.57
2019-02-02T07:53:41.438Z,62.23
2019-02-02T07:56:10.910Z,56.17
2019-02-02T07:58:40.048Z,57.97
2019-02-02T08:01:09.554Z,55.40
2019-02-02T08:03:38.694Z,57.63
2019-02-02T08:06:08.082Z,55.03
2019-02-02T08:08:37.430Z,59.03
2019-02-02T08:11:06.784Z,59.90
2019-02-02T08:13:38.838Z,58.30
2019-02-02T08:16:08.292Z,57.20
2019-02-02T08:18:37.456Z,58.33
2019-02-02T08:21:06.788Z,54.43
2019-02-02T08:23:36.076Z,56.10
2019-02-02T08:26:05.387Z,55.77
2019-02-02T08:28:34.864Z,54.80
2019-02-02T08:31:04.102Z,55.80
2019-02-02T08:33:34.538Z,55.50
2019-02-02T08:36:04.338Z,57.23
2019-02-02T08:38:33.403Z,55.03
2019-02-02T08:41:02.470Z,56.77
2019-02-02T08:43:31.866Z,57.63
2019-02-02T08:46:01.320Z,57.00
2019-02-02T08:48:30.652Z,60.23
2019-02-02T08:50:59.940Z,57.03
2019-02-02T08:53:50.520Z,59.00
2019-02-02T08:56:20.109Z,58.37
2019-02-02T08:58:58.500Z,57.57
2019-02-02T09:01:27.531Z,56.80
2019-02-02T09:03:56.641Z,56.47
2019-02-02T09:06:38.261Z,57.30
2019-02-02T09:08:57.648Z,59.57
2019-02-02T09:11:27.160Z,54.27
2019-02-02T09:13:56.218Z,57.77
2019-02-02T09:16:25.842Z,56.20
2019-02-02T09:18:55.127Z,57.03
2019-02-02T09:21:24.240Z,57.20
2019-02-02T09:23:55.218Z,53.43
2019-02-02T09:26:24.184Z,55.50
2019-02-02T09:28:53.348Z,56.37
2019-02-02T09:31:22.400Z,53.27
2019-02-02T09:33:51.605Z,55.10
2019-02-02T09:36:29.964Z,52.90
2019-02-02T09:38:59.054Z,55.57
2019-02-02T09:41:28.085Z,52.10
2019-02-02T09:43:57.107Z,54.30
2019-02-02T09:46:26.233Z,55.53
2019-02-02T09:48:57.809Z,51.33
2019-02-02T09:51:28.784Z,54.20
2019-02-02T09:53:57.885Z,50.07
2019-02-02T09:56:26.908Z,51.47
2019-02-02T09:58:56.051Z,52.13
2019-02-02T10:01:27.753Z,54.90
2019-02-02T10:03:55.951Z,53.57
2019-02-02T10:06:25.178Z,53.87
2019-02-02T10:08:57.439Z,55.63
2019-02-02T10:11:26.951Z,54.73
2019-02-02T10:13:56.047Z,54.03
2019-02-02T10:16:25.265Z,55.60
2019-02-02T10:18:54.245Z,51.77
2019-02-02T10:21:23.501Z,52.40
2019-02-02T10:23:52.453Z,53.90
2019-02-02T10:26:21.527Z,54.00
2019-02-02T10:28:50.739Z,53.40
2019-02-02T10:31:19.783Z,57.00
2019-02-02T10:33:48.768Z,54.67
2019-02-02T10:36:20.056Z,56.77
2019-02-02T10:38:48.907Z,54.13
2019-02-02T10:41:17.839Z,56.40
2019-02-02T10:43:47.049Z,59.77
2019-02-02T10:46:16.156Z,55.47
2019-02-02T10:48:45.261Z,54.97
2019-02-02T10:51:14.197Z,55.23
2019-02-02T10:53:45.329Z,56.23
2019-02-02T10:56:14.389Z,54.47
2019-02-02T10:58:43.564Z,56.60
2019-02-02T11:01:12.721Z,53.47
2019-02-02T11:03:42.031Z,57.83
2019-02-02T11:06:12.220Z,52.80
2019-02-02T11:08:43.454Z,55.97
2019-02-02T11:11:13.239Z,59.00
2019-02-02T11:13:42.639Z,57.30
2019-02-02T11:16:11.650Z,56.47
2019-02-02T11:18:41.281Z,56.37
2019-02-02T11:21:10.671Z,54.83
2019-02-02T11:23:39.657Z,54.10
2019-02-02T11:26:08.641Z,60.37
2019-02-02T11:28:38.015Z,59.50
2019-02-02T11:31:07.217Z,57.00
2019-02-02T11:33:36.879Z,57.37
2019-02-02T11:36:06.872Z,56.60
2019-02-02T11:38:36.332Z,57.90
2019-02-02T11:41:05.717Z,55.67
2019-02-02T11:43:35.061Z,58.87
2019-02-02T11:46:11.913Z,58.60
2019-02-02T11:48:41.287Z,59.20
2019-02-02T11:51:13.463Z,57.37
2019-02-02T11:53:42.859Z,58.40
2019-02-02T11:56:12.105Z,58.17
2019-02-02T11:58:41.554Z,57.57
2019-02-02T12:01:10.666Z,58.80
2019-02-02T12:03:39.855Z,57.43
2019-02-02T12:06:09.382Z,56.70
2019-02-02T12:08:38.981Z,62.50
2019-02-02T12:11:17.498Z,59.47
2019-02-02T12:13:46.729Z,57.03
2019-02-02T12:16:16.032Z,60.10
2019-02-02T12:18:45.190Z,62.73
2019-02-02T12:21:14.461Z,60.83
2019-02-02T12:23:43.655Z,61.83
2019-02-02T12:26:14.371Z,60.60
2019-02-02T12:28:46.400Z,60.93
2019-02-02T12:31:16.691Z,63.27
2019-02-02T12:33:46.103Z,61.20
2019-02-02T12:36:15.183Z,62.77
2019-02-02T12:38:44.589Z,62.63
2019-02-02T12:41:13.566Z,60.03
2019-02-02T12:44:15.207Z,62.50
2019-02-02T12:46:44.272Z,65.27
2019-02-02T12:49:13.264Z,66.70
2019-02-02T12:51:42.466Z,66.70
2019-02-02T12:54:11.783Z,65.13
2019-02-02T12:56:49.771Z,62.33
2019-02-02T12:59:18.850Z,62.70
2019-02-02T13:01:48.088Z,63.00
2019-02-02T13:04:17.238Z,63.73
2019-02-02T13:06:46.380Z,59.70
2019-02-02T13:09:16.370Z,60.60
2019-02-02T13:11:45.397Z,63.20
2019-02-02T13:14:14.676Z,64.77
2019-02-02T13:16:44.216Z,63.70
2019-02-02T13:19:14.098Z,63.20
2019-02-02T13:21:53.627Z,59.37
2019-02-02T13:24:22.736Z,62.07
2019-02-02T13:26:52.095Z,60.20
2019-02-02T13:29:21.570Z,61.87
2019-02-02T13:31:53.504Z,61.70
2019-02-02T13:34:22.803Z,59.10
2019-02-02T13:36:52.351Z,59.57
2019-02-02T13:46:46.730Z,55.77
2019-02-02T13:49:16.151Z,56.47
2019-02-02T13:52:30.572Z,53.47
2019-02-02T14:02:17.205Z,53.23
2019-02-02T14:14:39.015Z,52.07
2019-02-02T14:17:08.185Z,51.20
2019-02-02T14:19:37.598Z,53.00
2019-02-02T14:22:16.282Z,47.77
2019-02-02T14:24:53.380Z,51.30
2019-02-02T14:27:22.653Z,51.17
2019-02-02T14:30:09.104Z,47.97
2019-02-02T14:32:39.832Z,48.57
2019-02-02T14:35:10.522Z,49.20
2019-02-02T14:37:39.718Z,49.75
2019-02-02T14:40:09.858Z,51.30
2019-02-02T14:42:39.216Z,45.70
2019-02-02T14:45:10.521Z,47.80
2019-02-02T14:47:39.886Z,49.23
2019-02-02T14:50:12.122Z,49.10
2019-02-02T14:52:41.194Z,50.03
2019-02-02T14:55:11.969Z,49.00
2019-02-02T14:57:40.986Z,49.10
2019-02-02T15:00:14.357Z,49.85
2019-02-02T15:02:43.829Z,47.07
2019-02-02T15:05:13.161Z,50.00
2019-02-02T15:07:42.454Z,49.15
2019-02-02T15:10:12.149Z,51.93
2019-02-02T15:12:41.431Z,51.97
2019-02-02T15:15:12.195Z,52.70
2019-02-02T15:17:44.408Z,55.60
2019-02-02T15:20:24.555Z,53.80
2019-02-02T15:22:53.583Z,56.33
2019-02-02T15:25:22.737Z,56.00
2019-02-02T15:27:51.877Z,56.33
2019-02-02T15:30:22.297Z,57.80
2019-02-02T15:32:51.435Z,57.07
2019-02-02T15:35:20.692Z,59.03
2019-02-02T15:37:49.989Z,62.43
2019-02-02T15:40:19.063Z,58.20
2019-02-02T15:42:48.327Z,58.37
2019-02-02T15:45:22.333Z,60.20
2019-02-02T15:47:51.387Z,58.60
2019-02-02T15:50:20.729Z,58.20
2019-02-02T15:52:49.817Z,58.93
2019-02-02T15:55:20.651Z,58.00
2019-02-02T15:57:49.779Z,60.60
2019-02-02T16:00:20.920Z,60.40
2019-02-02T16:02:50.011Z,57.40
2019-02-02T16:05:19.086Z,58.23
2019-02-02T16:07:48.405Z,61.07
2019-02-02T16:10:19.633Z,59.55
2019-02-02T16:12:48.749Z,59.60
2019-02-02T16:15:17.700Z,61.98
2019-02-02T16:17:46.854Z,62.90
2019-02-02T16:20:18.389Z,59.53
2019-02-02T16:22:47.452Z,59.90
2019-02-02T16:25:16.341Z,57.13
2019-02-02T16:27:45.194Z,56.37
2019-02-02T16:30:18.076Z,58.93
2019-02-02T16:32:47.042Z,56.53
2019-02-02T16:35:16.130Z,55.75
2019-02-02T16:37:45.063Z,56.50
2019-02-02T16:40:16.225Z,56.40
2019-02-02T16:42:45.177Z,54.63
2019-02-02T16:45:16.072Z,55.50
2019-02-02T16:47:45.073Z,57.53
2019-02-02T16:50:15.837Z,55.40
2019-02-02T16:52:45.144Z,55.80
2019-02-02T16:55:14.346Z,55.73
2019-02-02T16:57:43.231Z,53.90
2019-02-02T17:00:15.150Z,52.83
2019-02-02T17:02:44.135Z,56.05
2019-02-02T17:05:13.336Z,54.20
2019-02-02T17:07:42.332Z,54.77
2019-02-02T17:10:19.657Z,54.77
2019-02-02T17:12:48.753Z,58.50
2019-02-02T17:15:17.592Z,55.67
2019-02-02T17:17:46.615Z,54.50
2019-02-02T17:20:20.716Z,56.17
2019-02-02T17:22:49.769Z,56.53
2019-02-02T17:25:22.744Z,55.00
2019-02-02T17:27:51.159Z,58.37
2019-02-02T17:30:21.632Z,52.17
2019-02-02T17:32:51.688Z,57.13
2019-02-02T17:35:20.626Z,55.67
2019-02-02T17:37:49.654Z,56.60
2019-02-02T17:40:20.700Z,54.80
2019-02-02T17:42:49.628Z,56.87
2019-02-02T17:45:19.215Z,59.23
2019-02-02T17:47:48.535Z,57.50
2019-02-02T17:50:19.174Z,62.80
2019-02-02T17:52:48.332Z,54.23
2019-02-02T17:55:17.607Z,55.33
2019-02-02T17:57:46.548Z,55.08
2019-02-02T18:00:23.122Z,57.20
2019-02-02T18:02:52.015Z,54.37
2019-02-02T18:05:21.072Z,54.93
2019-02-02T18:07:50.001Z,54.97
2019-02-02T18:10:19.018Z,53.07
2019-02-02T18:12:48.046Z,56.80
2019-02-02T18:15:17.078Z,54.77
2019-02-02T18:17:46.042Z,52.50
2019-02-02T18:20:15.440Z,51.00
2019-02-02T18:22:44.470Z,51.37
2019-02-02T18:25:14.000Z,51.00
2019-02-02T18:27:42.892Z,48.07
2019-02-02T18:30:14.768Z,49.63
2019-02-02T18:32:44.000Z,51.27
2019-02-02T18:35:14.612Z,46.60
2019-02-02T18:37:43.611Z,50.87
2019-02-02T18:40:14.086Z,46.63
2019-02-02T18:42:43.075Z,48.00
2019-02-02T18:45:14.939Z,49.47
2019-02-02T18:47:43.916Z,48.10
2019-02-02T18:50:14.183Z,44.03
2019-02-02T18:52:43.256Z,44.85
2019-02-02T18:55:15.093Z,44.23
2019-02-02T18:57:44.006Z,46.37
2019-02-02T19:00:17.980Z,47.48
2019-02-02T19:02:47.082Z,48.13
2019-02-02T19:05:16.163Z,47.23
2019-02-02T19:07:45.253Z,46.30
2019-02-02T19:10:19.395Z,48.47
2019-02-02T19:12:48.489Z,49.73
2019-02-02T19:15:17.428Z,46.70
2019-02-02T19:17:46.642Z,47.73
2019-02-02T19:20:17.622Z,48.07
2019-02-02T19:22:46.672Z,47.63
2019-02-02T19:25:15.766Z,47.07
2019-02-02T19:27:44.645Z,49.50
2019-02-02T19:30:27.698Z,47.10
2019-02-02T19:32:56.554Z,46.23
2019-02-02T19:35:25.609Z,47.90
2019-02-02T19:37:54.587Z,47.80
2019-02-02T19:40:23.657Z,45.83
2019-02-02T19:42:52.618Z,47.13
2019-02-02T19:45:23.126Z,47.57
2019-02-02T19:47:52.051Z,47.90
2019-02-02T19:50:23.895Z,48.23
2019-02-02T19:52:52.961Z,46.47
2019-02-02T19:55:22.041Z,47.30
2019-02-02T19:57:50.901Z,47.97
2019-02-02T20:00:30.495Z,47.90
2019-02-02T20:02:59.530Z,47.47
2019-02-02T20:05:29.354Z,46.37
2019-02-02T20:07:58.343Z,46.77
2019-02-02T20:10:27.535Z,46.93
2019-02-02T20:12:56.476Z,48.13
2019-02-02T20:15:26.029Z,47.40
2019-02-02T20:17:55.336Z,48.23
2019-02-02T20:20:25.423Z,45.20
2019-02-02T20:22:54.904Z,48.20
2019-02-02T20:25:23.855Z,47.23
2019-02-02T20:27:52.959Z,47.87
2019-02-02T20:30:23.836Z,51.20
2019-02-02T20:32:54.563Z,50.67
2019-02-02T20:35:23.551Z,51.00
2019-02-02T20:37:52.609Z,55.20
2019-02-02T20:40:22.837Z,52.60
2019-02-02T20:42:52.037Z,55.07
2019-02-02T20:45:23.393Z,54.13
2019-02-02T20:47:52.330Z,56.23
2019-02-02T20:50:21.385Z,57.23
2019-02-02T20:52:50.286Z,56.63
2019-02-02T20:55:21.719Z,55.10
2019-02-02T20:57:51.125Z,57.70
2019-02-02T21:00:21.837Z,56.97
2019-02-02T21:02:50.869Z,59.97
2019-02-02T21:05:19.851Z,56.90
2019-02-02T21:07:48.990Z,59.30
2019-02-02T21:10:19.906Z,60.90
2019-02-02T21:12:48.858Z,62.77
2019-02-02T21:15:17.843Z,64.17
2019-02-02T21:17:52.695Z,58.92
2019-02-02T21:20:23.819Z,59.10
2019-02-02T21:22:53.399Z,59.60
2019-02-02T21:25:22.354Z,61.90
2019-02-02T21:27:51.391Z,58.63
2019-02-02T21:30:25.171Z,55.40
2019-02-02T21:32:54.255Z,57.50
2019-02-02T21:35:23.600Z,50.53
2019-02-02T21:37:52.589Z,55.10
2019-02-02T21:40:23.719Z,54.40
2019-02-02T21:42:52.799Z,53.30
2019-02-02T21:45:21.729Z,57.97
2019-02-02T21:47:51.025Z,56.03
2019-02-02T21:50:21.408Z,54.83
2019-02-02T21:52:50.945Z,55.30
2019-02-02T21:55:21.816Z,56.00
2019-02-02T21:57:50.705Z,52.78
2019-02-02T22:00:24.647Z,51.47
2019-02-02T22:02:53.580Z,47.20
2019-02-02T22:05:22.656Z,49.85
2019-02-02T22:09:02.451Z,42.87
2019-02-02T22:18:38.265Z,33.50
2019-02-02T22:24:34.710Z,26.47
2019-02-02T22:27:03.584Z,25.50
2019-02-02T22:29:32.588Z,22.73
2019-02-02T22:32:01.595Z,24.60
2019-02-02T22:34:30.775Z,24.80
2019-02-02T22:36:59.654Z,23.77
2019-02-02T22:39:28.644Z,21.67
2019-02-02T22:41:57.626Z,20.70
2019-02-02T22:44:26.439Z,19.50
2019-02-02T22:46:55.442Z,21.02
2019-02-02T23:04:10.428Z,18.63
2019-02-02T23:06:59.761Z,19.93
2019-02-02T23:10:13.411Z,19.80
2019-02-02T23:12:58.793Z,22.13
2019-02-02T23:15:54.330Z,25.40
2019-02-02T23:18:26.898Z,23.37
2019-02-02T23:20:56.006Z,22.40
2019-02-02T23:23:25.306Z,24.40
2019-02-02T23:26:16.830Z,26.57
2019-02-02T23:28:25.284Z,26.37
2019-02-02T23:30:55.853Z,25.27
2019-02-02T23:33:24.955Z,27.87
2019-02-02T23:35:54.410Z,26.67
2019-02-02T23:38:23.478Z,25.20
2019-02-02T23:40:52.799Z,24.87
2019-02-02T23:43:21.904Z,23.33
2019-02-02T23:45:51.157Z,23.80
2019-02-02T23:48:20.230Z,23.00
2019-02-02T23:50:49.588Z,24.02
2019-02-02T23:53:18.416Z,24.10
2019-02-02T23:55:47.436Z,26.90
2019-02-02T23:58:16.430Z,25.27
